Rafard, Brazil
Current Conditions -  °F | °C
As of 3:00 PM on Friday 31 Oct 2014 (Local Time) from SBKP Reporting Station
Scattered Clouds Scattered Clouds  
Wind Chill: 90°   Ceiling: Unl
Heat Index: 90°   Visibility: 6mi
Dew Point: 57°   Wind: 9mph
Humidity: 33%   Direction: 350°N
Pressure: 29.94"   Gusts: NA
Location:  23.01°S, 47.53°W
Report Text: SBKP 311700Z 35008KT 9999 SCT045 32/14 Q1014
Loading
Personal Weather Stations






























Interactive Weather Map
Tropical Storm Tracking
New forecast layout! Learn more

10-Day Weather Forecast

Advertisements
Track Severe Weather on mobile